sensor_id;sensor_type;location;lat;lon;timestamp;temperature;humidity
47921;DHT22;33686;48.770;9.186;2022-09-29T05:18:51;7.50;99.90
47921;DHT22;33686;48.770;9.186;2022-09-29T05:21:17;7.50;99.90
47921;DHT22;33686;48.770;9.186;2022-09-29T05:23:43;7.50;99.90
47921;DHT22;33686;48.770;9.186;2022-09-29T05:26:09;7.40;99.90
47921;DHT22;33686;48.770;9.186;2022-09-29T05:28:35;7.40;99.90
47921;DHT22;33686;48.770;9.186;2022-09-29T05:31:02;7.30;99.90
47921;DHT22;33686;48.770;9.186;2022-09-29T05:33:27;7.20;99.90
47921;DHT22;33686;48.770;9.186;2022-09-29T05:35:53;7.30;99.90
47921;DHT22;33686;48.770;9.186;2022-09-29T05:38:19;7.30;99.90
47921;DHT22;33686;48.770;9.186;2022-09-29T05:40:45;7.40;99.90
47921;DHT22;33686;48.770;9.186;2022-09-29T05:43:10;7.30;99.90
47921;DHT22;33686;48.770;9.186;2022-09-29T05:45:36;7.30;99.90
47921;DHT22;33686;48.770;9.186;2022-09-29T05:48:02;7.30;99.90
47921;DHT22;33686;48.770;9.186;2022-09-29T05:50:27;7.40;99.90
47921;DHT22;33686;48.770;9.186;2022-09-29T05:52:53;7.40;99.90
47921;DHT22;33686;48.770;9.186;2022-09-29T05:55:19;7.40;99.90
47921;DHT22;33686;48.770;9.186;2022-09-29T05:57:48;7.50;99.90
47921;DHT22;33686;48.770;9.186;2022-09-29T06:00:14;7.50;99.90
47921;DHT22;33686;48.770;9.186;2022-09-29T06:02:39;7.60;99.90
47921;DHT22;33686;48.770;9.186;2022-09-29T06:05:05;7.70;99.90
47921;DHT22;33686;48.770;9.186;2022-09-29T06:07:30;7.60;99.90
47921;DHT22;33686;48.770;9.186;2022-09-29T06:09:56;7.60;99.90
47921;DHT22;33686;48.770;9.186;2022-09-29T06:12:21;7.60;99.90
47921;DHT22;33686;48.770;9.186;2022-09-29T06:14:47;7.50;99.90
47921;DHT22;33686;48.770;9.186;2022-09-29T06:17:13;7.60;99.90
47921;DHT22;33686;48.770;9.186;2022-09-29T06:19:38;7.60;99.90
47921;DHT22;33686;48.770;9.186;2022-09-29T06:22:04;7.80;99.90
47921;DHT22;33686;48.770;9.186;2022-09-29T06:24:29;7.80;99.90
47921;DHT22;33686;48.770;9.186;2022-09-29T06:26:55;7.90;99.90
47921;DHT22;33686;48.770;9.186;2022-09-29T06:29:20;8.00;99.90
47921;DHT22;33686;48.770;9.186;2022-09-29T06:31:46;8.10;99.90
47921;DHT22;33686;48.770;9.186;2022-09-29T06:34:13;8.30;99.90
47921;DHT22;33686;48.770;9.186;2022-09-29T06:36:43;8.50;99.90
47921;DHT22;33686;48.770;9.186;2022-09-29T06:39:27;8.60;99.90
47921;DHT22;33686;48.770;9.186;2022-09-29T06:41:53;8.70;99.90
47921;DHT22;33686;48.770;9.186;2022-09-29T06:44:24;8.90;99.90
47921;DHT22;33686;48.770;9.186;2022-09-29T06:46:50;8.90;99.90
47921;DHT22;33686;48.770;9.186;2022-09-29T06:49:16;8.90;99.90
47921;DHT22;33686;48.770;9.186;2022-09-29T06:51:42;9.00;99.90
47921;DHT22;33686;48.770;9.186;2022-09-29T06:54:12;9.00;99.90
47921;DHT22;33686;48.770;9.186;2022-09-29T06:56:38;9.00;99.90
47921;DHT22;33686;48.770;9.186;2022-09-29T06:59:03;9.10;99.90
47921;DHT22;33686;48.770;9.186;2022-09-29T07:01:29;9.10;99.90
47921;DHT22;33686;48.770;9.186;2022-09-29T07:03:55;9.10;99.90
47921;DHT22;33686;48.770;9.186;2022-09-29T07:06:20;9.20;99.90
47921;DHT22;33686;48.770;9.186;2022-09-29T07:08:46;9.30;99.90
47921;DHT22;33686;48.770;9.186;2022-09-29T07:11:12;9.30;99.90
47921;DHT22;33686;48.770;9.186;2022-09-29T07:13:37;9.30;99.90
47921;DHT22;33686;48.770;9.186;2022-09-29T07:16:10;9.30;99.90
47921;DHT22;33686;48.770;9.186;2022-09-29T07:18:36;9.30;99.90
47921;DHT22;33686;48.770;9.186;2022-09-29T07:21:03;9.20;99.90
47921;DHT22;33686;48.770;9.186;2022-09-29T07:23:29;9.30;99.90
47921;DHT22;33686;48.770;9.186;2022-09-29T07:25:54;9.40;99.90
47921;DHT22;33686;48.770;9.186;2022-09-29T07:28:20;9.50;99.90
47921;DHT22;33686;48.770;9.186;2022-09-29T07:30:46;9.50;99.90
47921;DHT22;33686;48.770;9.186;2022-09-29T07:33:12;9.60;99.90
47921;DHT22;33686;48.770;9.186;2022-09-29T07:35:38;9.70;99.90
47921;DHT22;33686;48.770;9.186;2022-09-29T07:38:03;9.90;99.90
47921;DHT22;33686;48.770;9.186;2022-09-29T07:40:29;10.00;99.90
47921;DHT22;33686;48.770;9.186;2022-09-29T07:42:55;10.10;99.90
47921;DHT22;33686;48.770;9.186;2022-09-29T07:45:20;10.00;99.90
47921;DHT22;33686;48.770;9.186;2022-09-29T07:47:46;10.00;99.90
47921;DHT22;33686;48.770;9.186;2022-09-29T07:50:12;10.10;99.90
47921;DHT22;33686;48.770;9.186;2022-09-29T07:52:37;10.20;99.90
47921;DHT22;33686;48.770;9.186;2022-09-29T07:55:03;10.20;99.90
47921;DHT22;33686;48.770;9.186;2022-09-29T07:57:29;10.30;99.90
47921;DHT22;33686;48.770;9.186;2022-09-29T07:59:54;10.40;99.90
47921;DHT22;33686;48.770;9.186;2022-09-29T08:02:22;10.70;99.90
47921;DHT22;33686;48.770;9.186;2022-09-29T08:04:48;10.80;99.90
47921;DHT22;33686;48.770;9.186;2022-09-29T08:07:13;10.90;99.90
47921;DHT22;33686;48.770;9.186;2022-09-29T08:09:39;10.80;99.90
47921;DHT22;33686;48.770;9.186;2022-09-29T08:12:05;10.90;99.90
47921;DHT22;33686;48.770;9.186;2022-09-29T08:14:30;10.90;99.90
47921;DHT22;33686;48.770;9.186;2022-09-29T08:16:56;11.00;99.90
47921;DHT22;33686;48.770;9.186;2022-09-29T08:19:22;11.20;99.90
47921;DHT22;33686;48.770;9.186;2022-09-29T08:21:47;11.20;99.90
47921;DHT22;33686;48.770;9.186;2022-09-29T08:24:14;11.20;99.90
47921;DHT22;33686;48.770;9.186;2022-09-29T08:26:40;11.20;99.90
47921;DHT22;33686;48.770;9.186;2022-09-29T08:29:05;11.40;99.90
47921;DHT22;33686;48.770;9.186;2022-09-29T08:31:31;11.30;99.90
47921;DHT22;33686;48.770;9.186;2022-09-29T08:33:58;11.40;99.90
47921;DHT22;33686;48.770;9.186;2022-09-29T08:36:23;11.80;99.90
47921;DHT22;33686;48.770;9.186;2022-09-29T08:38:50;12.10;99.90
47921;DHT22;33686;48.770;9.186;2022-09-29T08:43:59;12.50;99.90
47921;DHT22;33686;48.770;9.186;2022-09-29T08:48:54;12.50;99.90
47921;DHT22;33686;48.770;9.186;2022-09-29T08:51:31;12.40;99.90
47921;DHT22;33686;48.770;9.186;2022-09-29T08:53:59;12.50;99.90
47921;DHT22;33686;48.770;9.186;2022-09-29T08:56:26;12.70;99.90
47921;DHT22;33686;48.770;9.186;2022-09-29T08:58:51;12.60;99.90
47921;DHT22;33686;48.770;9.186;2022-09-29T09:03:57;12.30;99.90
47921;DHT22;33686;48.770;9.186;2022-09-29T09:21:19;11.90;99.90
47921;DHT22;33686;48.770;9.186;2022-09-29T09:26:19;12.00;99.90
47921;DHT22;33686;48.770;9.186;2022-09-29T09:29:10;12.20;99.90
47921;DHT22;33686;48.770;9.186;2022-09-29T09:31:38;12.30;99.90
47921;DHT22;33686;48.770;9.186;2022-09-29T09:34:27;12.30;99.90
47921;DHT22;33686;48.770;9.186;2022-09-29T09:42:45;12.50;99.90
47921;DHT22;33686;48.770;9.186;2022-09-29T09:50:32;12.60;99.90
47921;DHT22;33686;48.770;9.186;2022-09-29T09:52:59;12.80;99.90
47921;DHT22;33686;48.770;9.186;2022-09-29T09:55:27;12.80;99.90
47921;DHT22;33686;48.770;9.186;2022-09-29T10:00:31;13.10;99.90
47921;DHT22;33686;48.770;9.186;2022-09-29T10:03:03;13.20;99.90
47921;DHT22;33686;48.770;9.186;2022-09-29T10:05:36;13.10;99.90
47921;DHT22;33686;48.770;9.186;2022-09-29T10:08:11;12.90;99.90
47921;DHT22;33686;48.770;9.186;2022-09-29T10:10:39;12.70;99.90
47921;DHT22;33686;48.770;9.186;2022-09-29T10:13:09;13.10;99.90
47921;DHT22;33686;48.770;9.186;2022-09-29T10:20:34;13.40;99.90
47921;DHT22;33686;48.770;9.186;2022-09-29T10:28:36;13.30;99.90
47921;DHT22;33686;48.770;9.186;2022-09-29T10:31:02;13.50;99.90
47921;DHT22;33686;48.770;9.186;2022-09-29T10:33:39;13.70;99.90
47921;DHT22;33686;48.770;9.186;2022-09-29T10:36:10;14.00;99.90
47921;DHT22;33686;48.770;9.186;2022-09-29T10:38:35;13.80;99.90
47921;DHT22;33686;48.770;9.186;2022-09-29T10:41:03;13.50;99.90
47921;DHT22;33686;48.770;9.186;2022-09-29T10:43:39;13.40;99.90
47921;DHT22;33686;48.770;9.186;2022-09-29T10:46:05;13.40;99.90
47921;DHT22;33686;48.770;9.186;2022-09-29T10:48:45;13.60;99.90
47921;DHT22;33686;48.770;9.186;2022-09-29T10:51:13;13.60;99.90
47921;DHT22;33686;48.770;9.186;2022-09-29T10:53:43;13.60;99.90
47921;DHT22;33686;48.770;9.186;2022-09-29T10:56:15;13.70;99.90
47921;DHT22;33686;48.770;9.186;2022-09-29T10:58:42;13.90;99.90
47921;DHT22;33686;48.770;9.186;2022-09-29T11:01:13;13.60;99.90
47921;DHT22;33686;48.770;9.186;2022-09-29T11:03:47;13.50;99.90
47921;DHT22;33686;48.770;9.186;2022-09-29T11:06:13;13.30;99.90
47921;DHT22;33686;48.770;9.186;2022-09-29T11:11:24;13.50;99.90
47921;DHT22;33686;48.770;9.186;2022-09-29T11:13:51;13.60;99.90
47921;DHT22;33686;48.770;9.186;2022-09-29T11:16:18;13.40;99.90
47921;DHT22;33686;48.770;9.186;2022-09-29T11:18:44;13.60;99.90
47921;DHT22;33686;48.770;9.186;2022-09-29T11:26:19;14.00;99.90
47921;DHT22;33686;48.770;9.186;2022-09-29T11:28:53;14.00;99.90
47921;DHT22;33686;48.770;9.186;2022-09-29T11:42:02;13.60;99.90
47921;DHT22;33686;48.770;9.186;2022-09-29T11:44:39;13.90;99.90
47921;DHT22;33686;48.770;9.186;2022-09-29T12:01:08;14.00;99.90
47921;DHT22;33686;48.770;9.186;2022-09-29T12:03:26;14.20;99.90
47921;DHT22;33686;48.770;9.186;2022-09-29T12:16:34;14.10;99.90
47921;DHT22;33686;48.770;9.186;2022-09-29T12:19:03;14.20;99.90
47921;DHT22;33686;48.770;9.186;2022-09-29T12:21:32;14.10;99.90
47921;DHT22;33686;48.770;9.186;2022-09-29T12:23:59;13.80;99.90
47921;DHT22;33686;48.770;9.186;2022-09-29T12:26:27;13.80;99.90
47921;DHT22;33686;48.770;9.186;2022-09-29T12:28:55;13.80;99.90
47921;DHT22;33686;48.770;9.186;2022-09-29T12:31:24;13.90;99.90
47921;DHT22;33686;48.770;9.186;2022-09-29T12:33:52;14.10;99.90
47921;DHT22;33686;48.770;9.186;2022-09-29T12:41:34;14.00;99.90
47921;DHT22;33686;48.770;9.186;2022-09-29T12:44:13;13.90;99.90
47921;DHT22;33686;48.770;9.186;2022-09-29T12:46:44;14.00;99.90
47921;DHT22;33686;48.770;9.186;2022-09-29T12:49:21;14.10;99.90
47921;DHT22;33686;48.770;9.186;2022-09-29T12:51:48;14.10;99.90
47921;DHT22;33686;48.770;9.186;2022-09-29T12:59:32;14.30;99.90
47921;DHT22;33686;48.770;9.186;2022-09-29T13:01:59;14.60;99.90
47921;DHT22;33686;48.770;9.186;2022-09-29T13:04:37;14.40;99.90
47921;DHT22;33686;48.770;9.186;2022-09-29T13:12:24;14.20;99.90
47921;DHT22;33686;48.770;9.186;2022-09-29T13:22:40;14.70;99.90
47921;DHT22;33686;48.770;9.186;2022-09-29T13:27:40;14.50;99.90
47921;DHT22;33686;48.770;9.186;2022-09-29T13:30:15;14.30;99.90
47921;DHT22;33686;48.770;9.186;2022-09-29T13:35:22;14.30;99.90
47921;DHT22;33686;48.770;9.186;2022-09-29T13:37:49;14.40;99.90
47921;DHT22;33686;48.770;9.186;2022-09-29T13:40:21;14.60;99.90
47921;DHT22;33686;48.770;9.186;2022-09-29T13:42:48;14.60;99.90
47921;DHT22;33686;48.770;9.186;2022-09-29T13:47:52;14.60;99.90
47921;DHT22;33686;48.770;9.186;2022-09-29T13:53:48;14.50;99.90
47921;DHT22;33686;48.770;9.186;2022-09-29T13:58:25;14.60;99.90
47921;DHT22;33686;48.770;9.186;2022-09-29T14:00:51;14.50;99.90
47921;DHT22;33686;48.770;9.186;2022-09-29T14:03:21;14.50;99.90
47921;DHT22;33686;48.770;9.186;2022-09-29T14:05:51;14.30;99.90
47921;DHT22;33686;48.770;9.186;2022-09-29T14:08:21;14.40;99.90
47921;DHT22;33686;48.770;9.186;2022-09-29T14:10:50;14.20;99.90
47921;DHT22;33686;48.770;9.186;2022-09-29T14:18:43;14.10;99.90
47921;DHT22;33686;48.770;9.186;2022-09-29T14:21:11;14.20;99.90
47921;DHT22;33686;48.770;9.186;2022-09-29T14:28:53;13.90;99.90
47921;DHT22;33686;48.770;9.186;2022-09-29T14:31:21;14.00;99.90
47921;DHT22;33686;48.770;9.186;2022-09-29T14:33:47;13.90;99.90
47921;DHT22;33686;48.770;9.186;2022-09-29T14:36:18;13.90;99.90
47921;DHT22;33686;48.770;9.186;2022-09-29T14:43:36;13.80;99.90
47921;DHT22;33686;48.770;9.186;2022-09-29T14:46:07;13.60;99.90
47921;DHT22;33686;48.770;9.186;2022-09-29T14:49:05;13.60;99.90
47921;DHT22;33686;48.770;9.186;2022-09-29T14:52:14;13.50;99.90
47921;DHT22;33686;48.770;9.186;2022-09-29T15:04:41;13.40;99.90
47921;DHT22;33686;48.770;9.186;2022-09-29T15:07:14;13.40;99.90
47921;DHT22;33686;48.770;9.186;2022-09-29T15:09:45;13.50;99.90
47921;DHT22;33686;48.770;9.186;2022-09-29T15:12:12;13.40;99.90
47921;DHT22;33686;48.770;9.186;2022-09-29T15:14:39;13.40;99.90
47921;DHT22;33686;48.770;9.186;2022-09-29T15:22:08;13.30;99.90
47921;DHT22;33686;48.770;9.186;2022-09-29T15:24:52;13.30;99.90
47921;DHT22;33686;48.770;9.186;2022-09-29T15:27:21;13.40;99.90
47921;DHT22;33686;48.770;9.186;2022-09-29T15:29:47;13.40;99.90
47921;DHT22;33686;48.770;9.186;2022-09-29T15:32:21;13.40;99.90
47921;DHT22;33686;48.770;9.186;2022-09-29T15:34:47;13.20;99.90
47921;DHT22;33686;48.770;9.186;2022-09-29T15:37:13;13.20;99.90
47921;DHT22;33686;48.770;9.186;2022-09-29T15:39:40;13.20;99.90
47921;DHT22;33686;48.770;9.186;2022-09-29T15:42:19;13.30;99.90
47921;DHT22;33686;48.770;9.186;2022-09-29T15:44:50;13.30;99.90
47921;DHT22;33686;48.770;9.186;2022-09-29T15:47:26;13.20;99.90
47921;DHT22;33686;48.770;9.186;2022-09-29T15:49:53;13.10;99.90
47921;DHT22;33686;48.770;9.186;2022-09-29T15:52:19;13.10;99.90
47921;DHT22;33686;48.770;9.186;2022-09-29T15:54:52;13.10;99.90
47921;DHT22;33686;48.770;9.186;2022-09-29T15:57:51;13.10;99.90
47921;DHT22;33686;48.770;9.186;2022-09-29T16:05:20;13.00;99.90
47921;DHT22;33686;48.770;9.186;2022-09-29T16:07:47;13.00;99.90
47921;DHT22;33686;48.770;9.186;2022-09-29T16:10:16;13.00;99.90
47921;DHT22;33686;48.770;9.186;2022-09-29T16:12:51;13.10;99.90
47921;DHT22;33686;48.770;9.186;2022-09-29T16:15:24;13.00;99.90
47921;DHT22;33686;48.770;9.186;2022-09-29T16:17:50;13.00;99.90
47921;DHT22;33686;48.770;9.186;2022-09-29T16:20:18;13.00;99.90
47921;DHT22;33686;48.770;9.186;2022-09-29T16:22:47;12.90;99.90
47921;DHT22;33686;48.770;9.186;2022-09-29T16:25:24;12.90;99.90
47921;DHT22;33686;48.770;9.186;2022-09-29T16:28:00;12.90;99.90
47921;DHT22;33686;48.770;9.186;2022-09-29T16:30:27;12.90;99.90
47921;DHT22;33686;48.770;9.186;2022-09-29T16:33:11;12.80;99.90
47921;DHT22;33686;48.770;9.186;2022-09-29T16:38:13;12.70;99.90
47921;DHT22;33686;48.770;9.186;2022-09-29T16:40:40;12.70;99.90
47921;DHT22;33686;48.770;9.186;2022-09-29T16:43:16;12.70;99.90
47921;DHT22;33686;48.770;9.186;2022-09-29T16:45:46;12.70;99.90
47921;DHT22;33686;48.770;9.186;2022-09-29T16:48:12;12.50;99.90
47921;DHT22;33686;48.770;9.186;2022-09-29T16:50:44;12.40;99.90
47921;DHT22;33686;48.770;9.186;2022-09-29T16:53:16;12.40;99.90
47921;DHT22;33686;48.770;9.186;2022-09-29T16:55:54;12.20;99.90
47921;DHT22;33686;48.770;9.186;2022-09-29T16:58:19;12.10;99.90
47921;DHT22;33686;48.770;9.186;2022-09-29T17:00:45;12.00;99.90
47921;DHT22;33686;48.770;9.186;2022-09-29T17:03:11;11.90;99.90
47921;DHT22;33686;48.770;9.186;2022-09-29T17:05:40;11.80;99.90
47921;DHT22;33686;48.770;9.186;2022-09-29T17:08:13;11.60;99.90
47921;DHT22;33686;48.770;9.186;2022-09-29T17:10:39;11.60;99.90
47921;DHT22;33686;48.770;9.186;2022-09-29T17:13:09;11.40;99.90
47921;DHT22;33686;48.770;9.186;2022-09-29T17:15:37;11.30;99.90
47921;DHT22;33686;48.770;9.186;2022-09-29T17:18:03;11.20;99.90
47921;DHT22;33686;48.770;9.186;2022-09-29T17:20:29;11.10;99.90
47921;DHT22;33686;48.770;9.186;2022-09-29T17:22:55;11.00;99.90
47921;DHT22;33686;48.770;9.186;2022-09-29T17:25:20;11.00;99.90
47921;DHT22;33686;48.770;9.186;2022-09-29T17:27:46;10.90;99.90
47921;DHT22;33686;48.770;9.186;2022-09-29T17:30:42;10.80;99.90
47921;DHT22;33686;48.770;9.186;2022-09-29T17:33:09;10.80;99.90
47921;DHT22;33686;48.770;9.186;2022-09-29T17:35:37;10.70;99.90
47921;DHT22;33686;48.770;9.186;2022-09-29T17:38:03;10.70;99.90
47921;DHT22;33686;48.770;9.186;2022-09-29T17:43:16;10.60;99.90
47921;DHT22;33686;48.770;9.186;2022-09-29T17:45:42;10.60;99.90
47921;DHT22;33686;48.770;9.186;2022-09-29T17:48:09;10.60;99.90
47921;DHT22;33686;48.770;9.186;2022-09-29T17:53:05;10.50;99.90
47921;DHT22;33686;48.770;9.186;2022-09-29T17:55:31;10.50;99.90
47921;DHT22;33686;48.770;9.186;2022-09-29T17:57:58;10.40;99.90
47921;DHT22;33686;48.770;9.186;2022-09-29T18:00:25;10.40;99.90
47921;DHT22;33686;48.770;9.186;2022-09-29T18:02:51;10.40;99.90
47921;DHT22;33686;48.770;9.186;2022-09-29T18:05:21;10.30;99.90
47921;DHT22;33686;48.770;9.186;2022-09-29T18:07:48;10.20;99.90
47921;DHT22;33686;48.770;9.186;2022-09-29T18:10:16;10.20;99.90
47921;DHT22;33686;48.770;9.186;2022-09-29T18:12:42;10.20;99.90
47921;DHT22;33686;48.770;9.186;2022-09-29T18:15:08;10.20;99.90
47921;DHT22;33686;48.770;9.186;2022-09-29T18:17:34;10.10;99.90
47921;DHT22;33686;48.770;9.186;2022-09-29T18:20:01;10.00;99.90
47921;DHT22;33686;48.770;9.186;2022-09-29T18:22:33;9.90;99.90
47921;DHT22;33686;48.770;9.186;2022-09-29T18:25:00;9.90;99.90
47921;DHT22;33686;48.770;9.186;2022-09-29T18:27:25;9.90;99.90
47921;DHT22;33686;48.770;9.186;2022-09-29T18:29:51;9.80;99.90
47921;DHT22;33686;48.770;9.186;2022-09-29T18:32:17;9.80;99.90
47921;DHT22;33686;48.770;9.186;2022-09-29T18:34:43;9.90;99.90
47921;DHT22;33686;48.770;9.186;2022-09-29T18:37:09;9.90;99.90
47921;DHT22;33686;48.770;9.186;2022-09-29T18:39:35;9.90;99.90
47921;DHT22;33686;48.770;9.186;2022-09-29T18:42:00;9.90;99.90
47921;DHT22;33686;48.770;9.186;2022-09-29T18:44:26;9.80;99.90
47921;DHT22;33686;48.770;9.186;2022-09-29T18:46:54;9.80;99.90
47921;DHT22;33686;48.770;9.186;2022-09-29T18:49:19;9.70;99.90
47921;DHT22;33686;48.770;9.186;2022-09-29T18:51:45;9.80;99.90
47921;DHT22;33686;48.770;9.186;2022-09-29T18:54:10;9.70;99.90
47921;DHT22;33686;48.770;9.186;2022-09-29T18:56:37;9.70;99.90
47921;DHT22;33686;48.770;9.186;2022-09-29T18:59:03;9.80;99.90
47921;DHT22;33686;48.770;9.186;2022-09-29T19:01:31;9.80;99.90
47921;DHT22;33686;48.770;9.186;2022-09-29T19:03:57;9.70;99.90
47921;DHT22;33686;48.770;9.186;2022-09-29T19:06:23;9.80;99.90
47921;DHT22;33686;48.770;9.186;2022-09-29T19:08:48;9.80;99.90
47921;DHT22;33686;48.770;9.186;2022-09-29T19:11:17;9.70;99.90
47921;DHT22;33686;48.770;9.186;2022-09-29T19:13:43;9.80;99.90
47921;DHT22;33686;48.770;9.186;2022-09-29T19:16:09;9.70;99.90
47921;DHT22;33686;48.770;9.186;2022-09-29T19:18:34;9.70;99.90
47921;DHT22;33686;48.770;9.186;2022-09-29T19:21:00;9.70;99.90
47921;DHT22;33686;48.770;9.186;2022-09-29T19:23:25;9.70;99.90
47921;DHT22;33686;48.770;9.186;2022-09-29T19:25:51;9.60;99.90
47921;DHT22;33686;48.770;9.186;2022-09-29T19:28:18;9.60;99.90
47921;DHT22;33686;48.770;9.186;2022-09-29T19:30:44;9.60;99.90
47921;DHT22;33686;48.770;9.186;2022-09-29T19:33:13;9.60;99.90
47921;DHT22;33686;48.770;9.186;2022-09-29T19:35:44;9.60;99.90
47921;DHT22;33686;48.770;9.186;2022-09-29T19:38:10;9.60;99.90
47921;DHT22;33686;48.770;9.186;2022-09-29T19:40:36;9.60;99.90
47921;DHT22;33686;48.770;9.186;2022-09-29T19:43:01;9.60;99.90
47921;DHT22;33686;48.770;9.186;2022-09-29T19:45:29;9.60;99.90
47921;DHT22;33686;48.770;9.186;2022-09-29T19:47:55;9.50;99.90
47921;DHT22;33686;48.770;9.186;2022-09-29T19:50:22;9.40;99.90
47921;DHT22;33686;48.770;9.186;2022-09-29T19:53:06;9.30;99.90
47921;DHT22;33686;48.770;9.186;2022-09-29T19:55:36;9.30;99.90
47921;DHT22;33686;48.770;9.186;2022-09-29T19:58:03;9.30;99.90
47921;DHT22;33686;48.770;9.186;2022-09-29T20:00:29;9.20;99.90
47921;DHT22;33686;48.770;9.186;2022-09-29T20:02:54;9.10;99.90
47921;DHT22;33686;48.770;9.186;2022-09-29T20:05:20;9.10;99.90
47921;DHT22;33686;48.770;9.186;2022-09-29T20:07:46;9.20;99.90
47921;DHT22;33686;48.770;9.186;2022-09-29T20:10:12;9.30;99.90
47921;DHT22;33686;48.770;9.186;2022-09-29T20:12:38;9.20;99.90
47921;DHT22;33686;48.770;9.186;2022-09-29T20:15:04;9.10;99.90
47921;DHT22;33686;48.770;9.186;2022-09-29T20:17:31;9.00;99.90
47921;DHT22;33686;48.770;9.186;2022-09-29T20:19:57;8.90;99.90
47921;DHT22;33686;48.770;9.186;2022-09-29T20:22:22;9.00;99.90
47921;DHT22;33686;48.770;9.186;2022-09-29T20:24:54;8.90;99.90
47921;DHT22;33686;48.770;9.186;2022-09-29T20:27:20;9.00;99.90
47921;DHT22;33686;48.770;9.186;2022-09-29T20:29:46;9.00;99.90
47921;DHT22;33686;48.770;9.186;2022-09-29T20:32:13;9.00;99.90
47921;DHT22;33686;48.770;9.186;2022-09-29T20:34:39;8.90;99.90
47921;DHT22;33686;48.770;9.186;2022-09-29T20:37:04;8.90;99.90
47921;DHT22;33686;48.770;9.186;2022-09-29T20:39:30;8.90;99.90
47921;DHT22;33686;48.770;9.186;2022-09-29T20:41:56;8.80;99.90
47921;DHT22;33686;48.770;9.186;2022-09-29T20:44:22;8.80;99.90
47921;DHT22;33686;48.770;9.186;2022-09-29T20:46:50;8.70;99.90
47921;DHT22;33686;48.770;9.186;2022-09-29T20:49:16;8.80;99.90
47921;DHT22;33686;48.770;9.186;2022-09-29T20:51:41;8.70;99.90
47921;DHT22;33686;48.770;9.186;2022-09-29T20:54:08;8.70;99.90
47921;DHT22;33686;48.770;9.186;2022-09-29T20:56:34;8.60;99.90
47921;DHT22;33686;48.770;9.186;2022-09-29T20:59:07;8.70;99.90
47921;DHT22;33686;48.770;9.186;2022-09-29T21:01:33;8.60;99.90
47921;DHT22;33686;48.770;9.186;2022-09-29T21:04:00;8.60;99.90
47921;DHT22;33686;48.770;9.186;2022-09-29T21:06:30;8.60;99.90
47921;DHT22;33686;48.770;9.186;2022-09-29T21:08:57;8.50;99.90
47921;DHT22;33686;48.770;9.186;2022-09-29T21:11:23;8.50;99.90
47921;DHT22;33686;48.770;9.186;2022-09-29T21:13:49;8.50;99.90
47921;DHT22;33686;48.770;9.186;2022-09-29T21:16:15;8.50;99.90
47921;DHT22;33686;48.770;9.186;2022-09-29T21:18:41;8.50;99.90
47921;DHT22;33686;48.770;9.186;2022-09-29T21:21:07;8.50;99.90
47921;DHT22;33686;48.770;9.186;2022-09-29T21:23:33;8.50;99.90
47921;DHT22;33686;48.770;9.186;2022-09-29T21:26:03;8.50;99.90
47921;DHT22;33686;48.770;9.186;2022-09-29T21:28:30;8.40;99.90
47921;DHT22;33686;48.770;9.186;2022-09-29T21:30:59;8.30;99.90
47921;DHT22;33686;48.770;9.186;2022-09-29T21:33:25;8.20;99.90
47921;DHT22;33686;48.770;9.186;2022-09-29T21:35:55;8.20;99.90
47921;DHT22;33686;48.770;9.186;2022-09-29T21:38:21;8.20;99.90
47921;DHT22;33686;48.770;9.186;2022-09-29T21:40:47;8.20;99.90
47921;DHT22;33686;48.770;9.186;2022-09-29T21:43:12;8.10;99.90
47921;DHT22;33686;48.770;9.186;2022-09-29T21:45:38;8.10;99.90
47921;DHT22;33686;48.770;9.186;2022-09-29T21:48:03;8.10;99.90
47921;DHT22;33686;48.770;9.186;2022-09-29T21:50:35;8.10;99.90
47921;DHT22;33686;48.770;9.186;2022-09-29T21:53:01;8.00;99.90
47921;DHT22;33686;48.770;9.186;2022-09-29T21:55:27;8.00;99.90
47921;DHT22;33686;48.770;9.186;2022-09-29T21:57:53;8.00;99.90
